Terminal Aerodrome Forecast
Issued by NWS

Home | Current Version | Previous Version | Text Only | Print | Product List | Glossary On
Versions: 1 2 3 4 5 6 7 8 9 10 11 12 13 14 15 16
000
FTUS45 KBYZ 230540
TAFLVM
TAF
KLVM 230540Z 2306/2406 09007KT P6SM VCSH OVC060
     FM231200 VRB06KT P6SM VCSH OVC050
     FM232000 34009KT 6SM -SN BR SCT025 OVC040
     FM240100 06008KT 3SM -SN BR OVC025=

USA.gov is the U.S. government's official web portal to all federal, state and local government web resources and services.